Station Historical Data
Daily Summary for June 13, 2017 Units:  Both    English   Metric
« Previous Day
Next Day »
Daily Weekly Monthly Yearly Custom
  High: Low: Average:
Temperature: 82.9 °F /  28.3 °C 66.3 °F /  19.1 °C 74.8 °F /  23.8 °C
Dew Point: 66.8 °F /  19.3 °C 54.2 °F /  12.3 °C 63.2 °F /  17.3 °C
Humidity: 86% 38% 68%
Wind Speed: 8.0mph /  12.9km/h - 2.1mph /  3.4km/h
Wind Gust: 14.0mph /  22.5km/h - -
Wind- - SSE
Pressure: 29.99 in /  1015.5 hPa 29.89 in /  1012.1 hPa -
Precipitation: 0.00 in /  0 mm    
Historical Graphs
 
 
Tabular Data for June 13, 2017
Time Temperature Dew Point Pressure Wind Wind Speed Wind Gust Humidity Rainfall Rate (Hourly)
00:04 74.8 °F /  23.8 °C 63.1 °F /  17.3 °C 29.91in /  1012.8hPa Calm   3.0mph /  4.8km/h 67% 0.00in /  0mm
00:09 74.7 °F /  23.7 °C 63.4 °F /  17.4 °C 29.91in /  1012.8hPa Calm   2.0mph /  3.2km/h 68% 0.00in /  0mm
00:14 74.5 °F /  23.6 °C 63.2 °F /  17.3 °C 29.91in /  1012.8hPa Calm     68% 0.00in /  0mm
00:19 74.3 °F /  23.5 °C 63.1 °F /  17.3 °C 29.91in /  1012.8hPa Calm     68% 0.00in /  0mm
00:24 74.1 °F /  23.4 °C 63.3 °F /  17.4 °C 29.91in /  1012.8hPa Calm     69% 0.00in /  0mm
00:29 73.9 °F /  23.3 °C 63.1 °F /  17.3 °C 29.91in /  1012.8hPa Calm   3.0mph /  4.8km/h 69% 0.00in /  0mm
00:34 74.0 °F /  23.3 °C 63.2 °F /  17.3 °C 29.91in /  1012.8hPa SW 1.0mph /  1.6km/h 3.0mph /  4.8km/h 69% 0.00in /  0mm
00:39 74.0 °F /  23.3 °C 63.2 °F /  17.3 °C 29.91in /  1012.8hPa SW 1.0mph /  1.6km/h 2.0mph /  3.2km/h 69% 0.00in /  0mm
00:44 74.3 °F /  23.5 °C 63.5 °F /  17.5 °C 29.91in /  1012.8hPa Calm   2.0mph /  3.2km/h 69% 0.00in /  0mm
00:49 74.6 °F /  23.7 °C 63.8 °F /  17.7 °C 29.91in /  1012.8hPa Calm   3.0mph /  4.8km/h 69% 0.00in /  0mm
00:54 74.7 °F /  23.7 °C 63.9 °F /  17.7 °C 29.91in /  1012.8hPa Calm   1.0mph /  1.6km/h 69% 0.00in /  0mm
00:59 74.8 °F /  23.8 °C 63.5 °F /  17.5 °C 29.91in /  1012.8hPa Calm     68% 0.00in /  0mm
01:04 74.9 °F /  23.8 °C 63.6 °F /  17.6 °C 29.91in /  1012.8hPa SW 3.0mph /  4.8km/h 4.0mph /  6.4km/h 68% 0.00in /  0mm
01:09 74.9 °F /  23.8 °C 63.6 °F /  17.6 °C 29.91in /  1012.8hPa SW 2.0mph /  3.2km/h 3.0mph /  4.8km/h 68% 0.00in /  0mm
01:14 74.7 °F /  23.7 °C 63.4 °F /  17.4 °C 29.91in /  1012.8hPa SW 4.0mph /  6.4km/h 4.0mph /  6.4km/h 68% 0.00in /  0mm
01:19 75.1 °F /  23.9 °C 63.8 °F /  17.7 °C 29.91in /  1012.8hPa SW 1.0mph /  1.6km/h 4.0mph /  6.4km/h 68% 0.00in /  0mm
01:24 75.4 °F /  24.1 °C 64.1 °F /  17.8 °C 29.91in /  1012.8hPa SW 1.0mph /  1.6km/h 4.0mph /  6.4km/h 68% 0.00in /  0mm
01:29 76.0 °F /  24.4 °C 64.2 °F /  17.9 °C 29.91in /  1012.8hPa SW 1.0mph /  1.6km/h 5.0mph /  8km/h 67% 0.00in /  0mm
01:34 76.5 °F /  24.7 °C 64.3 °F /  17.9 °C 29.91in /  1012.8hPa SW 1.0mph /  1.6km/h 5.0mph /  8km/h 66% 0.00in /  0mm
01:39 76.8 °F /  24.9 °C 64.1 °F /  17.8 °C 29.91in /  1012.8hPa Calm   6.0mph /  9.7km/h 65% 0.00in /  0mm
01:49 77.2 °F /  25.1 °C 64.1 °F /  17.8 °C 29.91in /  1012.8hPa SW 2.0mph /  3.2km/h 6.0mph /  9.7km/h 64% 0.00in /  0mm
01:54 77.4 °F /  25.2 °C 64.3 °F /  17.9 °C 29.90in /  1012.4hPa SW 3.0mph /  4.8km/h 6.0mph /  9.7km/h 64% 0.00in /  0mm
01:59 77.4 °F /  25.2 °C 64.3 °F /  17.9 °C 29.91in /  1012.8hPa SW 3.0mph /  4.8km/h 6.0mph /  9.7km/h 64% 0.00in /  0mm
02:04 77.6 °F /  25.3 °C 64.5 °F /  18.1 °C 29.90in /  1012.4hPa SW 3.0mph /  4.8km/h 6.0mph /  9.7km/h 64% 0.00in /  0mm
02:09 77.8 °F /  25.4 °C 64.6 °F /  18.1 °C 29.90in /  1012.4hPa WSW 2.0mph /  3.2km/h 5.0mph /  8km/h 64% 0.00in /  0mm
02:14 78.0 °F /  25.6 °C 64.4 °F /  18 °C 29.90in /  1012.4hPa SSW 4.0mph /  6.4km/h 7.0mph /  11.3km/h 63% 0.00in /  0mm
02:19 78.1 °F /  25.6 °C 64.5 °F /  18.1 °C 29.90in /  1012.4hPa SW 3.0mph /  4.8km/h 7.0mph /  11.3km/h 63% 0.00in /  0mm
02:24 78.1 °F /  25.6 °C 64.5 °F /  18.1 °C 29.90in /  1012.4hPa SW 3.0mph /  4.8km/h 7.0mph /  11.3km/h 63% 0.00in /  0mm
02:29 78.0 °F /  25.6 °C 64.4 °F /  18 °C 29.90in /  1012.4hPa SW 1.0mph /  1.6km/h 6.0mph /  9.7km/h 63% 0.00in /  0mm
02:34 78.1 °F /  25.6 °C 64.5 °F /  18.1 °C 29.90in /  1012.4hPa SW 3.0mph /  4.8km/h 5.0mph /  8km/h 63% 0.00in /  0mm
02:39 77.9 °F /  25.5 °C 64.7 °F /  18.2 °C 29.90in /  1012.4hPa WSW 5.0mph /  8km/h 7.0mph /  11.3km/h 64% 0.00in /  0mm
02:44 77.7 °F /  25.4 °C 64.5 °F /  18.1 °C 29.90in /  1012.4hPa SW 3.0mph /  4.8km/h 6.0mph /  9.7km/h 64% 0.00in /  0mm
02:49 77.7 °F /  25.4 °C 64.5 °F /  18.1 °C 29.90in /  1012.4hPa SW 3.0mph /  4.8km/h 8.0mph /  12.9km/h 64% 0.00in /  0mm
02:54 77.5 °F /  25.3 °C 64.4 °F /  18 °C 29.90in /  1012.4hPa SW 3.0mph /  4.8km/h 8.0mph /  12.9km/h 64% 0.00in /  0mm
02:59 77.4 °F /  25.2 °C 64.7 °F /  18.2 °C 29.90in /  1012.4hPa SW 3.0mph /  4.8km/h 7.0mph /  11.3km/h 65% 0.00in /  0mm
03:04 77.3 °F /  25.2 °C 64.6 °F /  18.1 °C 29.90in /  1012.4hPa SW 3.0mph /  4.8km/h 6.0mph /  9.7km/h 65% 0.00in /  0mm
03:09 77.2 °F /  25.1 °C 64.5 °F /  18.1 °C 29.90in /  1012.4hPa SW 2.0mph /  3.2km/h 6.0mph /  9.7km/h 65% 0.00in /  0mm
03:14 76.9 °F /  24.9 °C 64.7 °F /  18.2 °C 29.89in /  1012.1hPa SW 1.0mph /  1.6km/h 5.0mph /  8km/h 66% 0.00in /  0mm
03:19 76.8 °F /  24.9 °C 64.6 °F /  18.1 °C 29.89in /  1012.1hPa SW 3.0mph /  4.8km/h 9.0mph /  14.5km/h 66% 0.00in /  0mm
03:24 76.7 °F /  24.8 °C 64.9 °F /  18.3 °C 29.90in /  1012.4hPa WSW 5.0mph /  8km/h 7.0mph /  11.3km/h 67% 0.00in /  0mm
03:29 76.7 °F /  24.8 °C 64.9 °F /  18.3 °C 29.89in /  1012.1hPa Calm   5.0mph /  8km/h 67% 0.00in /  0mm
03:34 76.7 °F /  24.8 °C 65.3 °F /  18.5 °C 29.89in /  1012.1hPa WSW 4.0mph /  6.4km/h 9.0mph /  14.5km/h 68% 0.00in /  0mm
03:39 76.7 °F /  24.8 °C 65.3 °F /  18.5 °C 29.89in /  1012.1hPa SW 4.0mph /  6.4km/h 6.0mph /  9.7km/h 68% 0.00in /  0mm
03:44 76.8 °F /  24.9 °C 65.4 °F /  18.6 °C 29.89in /  1012.1hPa SW 3.0mph /  4.8km/h 7.0mph /  11.3km/h 68% 0.00in /  0mm
03:49 76.8 °F /  24.9 °C 65.4 °F /  18.6 °C 29.89in /  1012.1hPa WSW 3.0mph /  4.8km/h 7.0mph /  11.3km/h 68% 0.00in /  0mm
03:54 76.7 °F /  24.8 °C 65.3 °F /  18.5 °C 29.90in /  1012.4hPa WSW 3.0mph /  4.8km/h 7.0mph /  11.3km/h 68% 0.00in /  0mm
03:59 76.8 °F /  24.9 °C 65.4 °F /  18.6 °C 29.90in /  1012.4hPa WSW 4.0mph /  6.4km/h 10.0mph /  16.1km/h 68% 0.00in /  0mm
04:04 76.9 °F /  24.9 °C 65.5 °F /  18.6 °C 29.90in /  1012.4hPa WSW 4.0mph /  6.4km/h 10.0mph /  16.1km/h 68% 0.00in /  0mm
04:09 76.6 °F /  24.8 °C 65.7 °F /  18.7 °C 29.91in /  1012.8hPa West 3.0mph /  4.8km/h 9.0mph /  14.5km/h 69% 0.00in /  0mm
04:14 76.3 °F /  24.6 °C 65.4 °F /  18.6 °C 29.91in /  1012.8hPa WSW 3.0mph /  4.8km/h 8.0mph /  12.9km/h 69% 0.00in /  0mm
04:19 76.0 °F /  24.4 °C 65.5 °F /  18.6 °C 29.91in /  1012.8hPa WSW 3.0mph /  4.8km/h 8.0mph /  12.9km/h 70% 0.00in /  0mm
04:24 75.6 °F /  24.2 °C 65.1 °F /  18.4 °C 29.91in /  1012.8hPa SW 5.0mph /  8km/h 6.0mph /  9.7km/h 70% 0.00in /  0mm
04:29 75.2 °F /  24 °C 65.1 °F /  18.4 °C 29.91in /  1012.8hPa WSW 2.0mph /  3.2km/h 5.0mph /  8km/h 71% 0.00in /  0mm
04:34 74.9 °F /  23.8 °C 64.9 °F /  18.3 °C 29.91in /  1012.8hPa WSW 1.0mph /  1.6km/h 5.0mph /  8km/h 71% 0.00in /  0mm
04:39 74.4 °F /  23.6 °C 64.8 °F /  18.2 °C 29.91in /  1012.8hPa SW 4.0mph /  6.4km/h 5.0mph /  8km/h 72% 0.00in /  0mm
04:44 74.0 °F /  23.3 °C 64.8 °F /  18.2 °C 29.91in /  1012.8hPa WSW 4.0mph /  6.4km/h 7.0mph /  11.3km/h 73% 0.00in /  0mm
04:49 73.6 °F /  23.1 °C 64.4 °F /  18 °C 29.91in /  1012.8hPa WSW 3.0mph /  4.8km/h 7.0mph /  11.3km/h 73% 0.00in /  0mm
04:54 73.3 °F /  22.9 °C 64.5 °F /  18.1 °C 29.91in /  1012.8hPa WSW 3.0mph /  4.8km/h 7.0mph /  11.3km/h 74% 0.00in /  0mm
04:59 73.0 °F /  22.8 °C 64.6 °F /  18.1 °C 29.91in /  1012.8hPa WSW 3.0mph /  4.8km/h 6.0mph /  9.7km/h 75% 0.00in /  0mm
05:04 72.8 °F /  22.7 °C 64.4 °F /  18 °C 29.92in /  1013.1hPa WSW 2.0mph /  3.2km/h 6.0mph /  9.7km/h 75% 0.00in /  0mm
05:09 72.8 °F /  22.7 °C 64.8 °F /  18.2 °C 29.92in /  1013.1hPa West 2.0mph /  3.2km/h 5.0mph /  8km/h 76% 0.00in /  0mm
05:14 72.8 °F /  22.7 °C 64.8 °F /  18.2 °C 29.92in /  1013.1hPa West 2.0mph /  3.2km/h 6.0mph /  9.7km/h 76% 0.00in /  0mm
05:19 72.8 °F /  22.7 °C 64.8 °F /  18.2 °C 29.92in /  1013.1hPa West 4.0mph /  6.4km/h 6.0mph /  9.7km/h 76% 0.00in /  0mm
05:24 72.7 °F /  22.6 °C 64.7 °F /  18.2 °C 29.92in /  1013.1hPa West 3.0mph /  4.8km/h 6.0mph /  9.7km/h 76% 0.00in /  0mm
05:29 72.6 °F /  22.6 °C 64.6 °F /  18.1 °C 29.93in /  1013.4hPa West 4.0mph /  6.4km/h 6.0mph /  9.7km/h 76% 0.00in /  0mm
05:34 72.6 °F /  22.6 °C 65.0 °F /  18.3 °C 29.93in /  1013.4hPa SW 2.0mph /  3.2km/h 9.0mph /  14.5km/h 77% 0.00in /  0mm
05:39 72.7 °F /  22.6 °C 65.1 °F /  18.4 °C 29.93in /  1013.4hPa West 4.0mph /  6.4km/h 8.0mph /  12.9km/h 77% 0.00in /  0mm
05:44 72.8 °F /  22.7 °C 65.2 °F /  18.4 °C 29.93in /  1013.4hPa West 5.0mph /  8km/h 6.0mph /  9.7km/h 77% 0.00in /  0mm
05:49 72.9 °F /  22.7 °C 65.3 °F /  18.5 °C 29.93in /  1013.4hPa West 1.0mph /  1.6km/h 9.0mph /  14.5km/h 77% 0.00in /  0mm
05:54 72.9 °F /  22.7 °C 65.3 °F /  18.5 °C 29.93in /  1013.4hPa West 3.0mph /  4.8km/h 9.0mph /  14.5km/h 77% 0.00in /  0mm
05:59 72.9 °F /  22.7 °C 65.3 °F /  18.5 °C 29.93in /  1013.4hPa West 3.0mph /  4.8km/h 7.0mph /  11.3km/h 77% 0.00in /  0mm
06:04 73.1 °F /  22.8 °C 65.5 °F /  18.6 °C 29.94in /  1013.8hPa West 3.0mph /  4.8km/h 6.0mph /  9.7km/h 77% 0.00in /  0mm
06:09 73.1 °F /  22.8 °C 65.5 °F /  18.6 °C 29.94in /  1013.8hPa West 2.0mph /  3.2km/h 5.0mph /  8km/h 77% 0.00in /  0mm
06:14 73.1 °F /  22.8 °C 65.5 °F /  18.6 °C 29.93in /  1013.4hPa Calm   4.0mph /  6.4km/h 77% 0.00in /  0mm
06:19 72.9 °F /  22.7 °C 65.3 °F /  18.5 °C 29.93in /  1013.4hPa SW 2.0mph /  3.2km/h 5.0mph /  8km/h 77% 0.00in /  0mm
06:24 72.9 °F /  22.7 °C 65.3 °F /  18.5 °C 29.93in /  1013.4hPa SW 2.0mph /  3.2km/h 5.0mph /  8km/h 77% 0.00in /  0mm
06:29 72.9 °F /  22.7 °C 65.3 °F /  18.5 °C 29.93in /  1013.4hPa SW 3.0mph /  4.8km/h 5.0mph /  8km/h 77% 0.00in /  0mm
06:34 72.9 °F /  22.7 °C 65.3 °F /  18.5 °C 29.93in /  1013.4hPa Calm   4.0mph /  6.4km/h 77% 0.00in /  0mm
06:39 73.0 °F /  22.8 °C 65.4 °F /  18.6 °C 29.94in /  1013.8hPa West 2.0mph /  3.2km/h 6.0mph /  9.7km/h 77% 0.00in /  0mm
06:44 72.8 °F /  22.7 °C 65.2 °F /  18.4 °C 29.96in /  1014.4hPa WNW 2.0mph /  3.2km/h 4.0mph /  6.4km/h 77% 0.00in /  0mm
06:49 72.8 °F /  22.7 °C 65.2 °F /  18.4 °C 29.95in /  1014.1hPa West 3.0mph /  4.8km/h 5.0mph /  8km/h 77% 0.00in /  0mm
06:54 72.8 °F /  22.7 °C 65.2 °F /  18.4 °C 29.93in /  1013.4hPa WSW 2.0mph /  3.2km/h 5.0mph /  8km/h 77% 0.00in /  0mm
06:59 72.8 °F /  22.7 °C 65.2 °F /  18.4 °C 29.93in /  1013.4hPa SSW 2.0mph /  3.2km/h 4.0mph /  6.4km/h 77% 0.00in /  0mm
07:04 72.8 °F /  22.7 °C 65.2 °F /  18.4 °C 29.94in /  1013.8hPa SSW 1.0mph /  1.6km/h 4.0mph /  6.4km/h 77% 0.00in /  0mm
07:09 73.0 °F /  22.8 °C 65.4 °F /  18.6 °C 29.94in /  1013.8hPa SSW 1.0mph /  1.6km/h 3.0mph /  4.8km/h 77% 0.00in /  0mm
07:14 73.4 °F /  23 °C 65.7 °F /  18.7 °C 29.95in /  1014.1hPa Calm   4.0mph /  6.4km/h 77% 0.00in /  0mm
07:19 73.4 °F /  23 °C 65.7 °F /  18.7 °C 29.95in /  1014.1hPa NW 2.0mph /  3.2km/h 4.0mph /  6.4km/h 77% 0.00in /  0mm
07:24 73.5 °F /  23.1 °C 65.5 °F /  18.6 °C 29.95in /  1014.1hPa WNW 3.0mph /  4.8km/h 6.0mph /  9.7km/h 76% 0.00in /  0mm
07:29 73.4 °F /  23 °C 64.2 °F /  17.9 °C 29.95in /  1014.1hPa NNW 2.0mph /  3.2km/h 7.0mph /  11.3km/h 73% 0.00in /  0mm
07:34 73.4 °F /  23 °C 62.6 °F /  17 °C 29.94in /  1013.8hPa NNW 3.0mph /  4.8km/h 9.0mph /  14.5km/h 69% 0.00in /  0mm
07:39 73.7 °F /  23.2 °C 62.5 °F /  16.9 °C 29.95in /  1014.1hPa NNW 3.0mph /  4.8km/h 9.0mph /  14.5km/h 68% 0.00in /  0mm
07:44 74.0 °F /  23.3 °C 63.2 °F /  17.3 °C 29.95in /  1014.1hPa NW 1.0mph /  1.6km/h 6.0mph /  9.7km/h 69% 0.00in /  0mm
07:49 73.9 °F /  23.3 °C 62.7 °F /  17.1 °C 29.96in /  1014.4hPa NNW 2.0mph /  3.2km/h 4.0mph /  6.4km/h 68% 0.00in /  0mm
07:54 73.7 °F /  23.2 °C 62.5 °F /  16.9 °C 29.95in /  1014.1hPa Calm   5.0mph /  8km/h 68% 0.00in /  0mm
07:59 73.7 °F /  23.2 °C 62.9 °F /  17.2 °C 29.96in /  1014.4hPa North 2.0mph /  3.2km/h 5.0mph /  8km/h 69% 0.00in /  0mm
08:04 73.6 °F /  23.1 °C 63.2 °F /  17.3 °C 29.95in /  1014.1hPa NNE 1.0mph /  1.6km/h 4.0mph /  6.4km/h 70% 0.00in /  0mm
08:09 73.7 °F /  23.2 °C 63.3 °F /  17.4 °C 29.95in /  1014.1hPa NNW 2.0mph /  3.2km/h 6.0mph /  9.7km/h 70% 0.00in /  0mm
08:14 73.6 °F /  23.1 °C 63.2 °F /  17.3 °C 29.95in /  1014.1hPa Calm   5.0mph /  8km/h 70% 0.00in /  0mm
08:19 73.4 °F /  23 °C 63.4 °F /  17.4 °C 29.96in /  1014.4hPa NE 1.0mph /  1.6km/h 3.0mph /  4.8km/h 71% 0.00in /  0mm
08:24 73.3 °F /  22.9 °C 63.3 °F /  17.4 °C 29.95in /  1014.1hPa Calm   1.0mph /  1.6km/h 71% 0.00in /  0mm
08:29 73.5 °F /  23.1 °C 63.1 °F /  17.3 °C 29.96in /  1014.4hPa Calm   1.0mph /  1.6km/h 70% 0.00in /  0mm
08:34 73.7 °F /  23.2 °C 63.3 °F /  17.4 °C 29.95in /  1014.1hPa Calm     70% 0.00in /  0mm
08:39 73.7 °F /  23.2 °C 62.9 °F /  17.2 °C 29.95in /  1014.1hPa Calm     69% 0.00in /  0mm
08:44 73.9 °F /  23.3 °C 62.7 °F /  17.1 °C 29.95in /  1014.1hPa Calm     68% 0.00in /  0mm
08:49 73.9 °F /  23.3 °C 62.7 °F /  17.1 °C 29.95in /  1014.1hPa Calm     68% 0.00in /  0mm
08:54 74.0 °F /  23.3 °C 62.3 °F /  16.8 °C 29.95in /  1014.1hPa SE 2.0mph /  3.2km/h 3.0mph /  4.8km/h 67% 0.00in /  0mm
08:59 74.0 °F /  23.3 °C 62.8 °F /  17.1 °C 29.95in /  1014.1hPa SE 1.0mph /  1.6km/h 4.0mph /  6.4km/h 68% 0.00in /  0mm
09:04 73.8 °F /  23.2 °C 63.8 °F /  17.7 °C 29.95in /  1014.1hPa Calm   2.0mph /  3.2km/h 71% 0.00in /  0mm
09:09 73.7 °F /  23.2 °C 63.3 °F /  17.4 °C 29.95in /  1014.1hPa SSE 1.0mph /  1.6km/h 3.0mph /  4.8km/h 70% 0.00in /  0mm
09:14 73.9 °F /  23.3 °C 63.1 °F /  17.3 °C 29.94in /  1013.8hPa SE 2.0mph /  3.2km/h 5.0mph /  8km/h 69% 0.00in /  0mm
09:19 74.1 °F /  23.4 °C 63.7 °F /  17.6 °C 29.95in /  1014.1hPa Calm   6.0mph /  9.7km/h 70% 0.00in /  0mm
09:24 74.4 °F /  23.6 °C 63.1 °F /  17.3 °C 29.95in /  1014.1hPa SW 2.0mph /  3.2km/h 3.0mph /  4.8km/h 68% 0.00in /  0mm
09:29 74.7 °F /  23.7 °C 63.9 °F /  17.7 °C 29.95in /  1014.1hPa SW 1.0mph /  1.6km/h 3.0mph /  4.8km/h 69% 0.00in /  0mm
09:34 75.0 °F /  23.9 °C 64.1 °F /  17.8 °C 29.95in /  1014.1hPa SSW 1.0mph /  1.6km/h 4.0mph /  6.4km/h 69% 0.00in /  0mm
09:39 75.1 °F /  23.9 °C 64.2 °F /  17.9 °C 29.96in /  1014.4hPa SSW 1.0mph /  1.6km/h 4.0mph /  6.4km/h 69% 0.00in /  0mm
09:44 74.9 °F /  23.8 °C 64.0 °F /  17.8 °C 29.96in /  1014.4hPa WSW 1.0mph /  1.6km/h 2.0mph /  3.2km/h 69% 0.00in /  0mm
09:49 74.8 °F /  23.8 °C 63.5 °F /  17.5 °C 29.96in /  1014.4hPa SW 1.0mph /  1.6km/h 2.0mph /  3.2km/h 68% 0.00in /  0mm
09:54 75.5 °F /  24.2 °C 63.8 °F /  17.7 °C 29.96in /  1014.4hPa Calm   2.0mph /  3.2km/h 67% 0.00in /  0mm
09:59 75.7 °F /  24.3 °C 63.1 °F /  17.3 °C 29.96in /  1014.4hPa Calm   2.0mph /  3.2km/h 65% 0.00in /  0mm
10:04 76.0 °F /  24.4 °C 63.4 °F /  17.4 °C 29.95in /  1014.1hPa Calm   2.0mph /  3.2km/h 65% 0.00in /  0mm
10:09 77.4 °F /  25.2 °C 65.1 °F /  18.4 °C 29.95in /  1014.1hPa Calm     66% 0.00in /  0mm
10:14 78.3 °F /  25.7 °C 64.2 °F /  17.9 °C 29.95in /  1014.1hPa Calm     62% 0.00in /  0mm
10:19 78.6 °F /  25.9 °C 64.0 °F /  17.8 °C 29.95in /  1014.1hPa Calm     61% 0.00in /  0mm
10:24 79.0 °F /  26.1 °C 62.5 °F /  16.9 °C 29.95in /  1014.1hPa Calm     57% 0.00in /  0mm
10:29 79.1 °F /  26.2 °C 62.1 °F /  16.7 °C 29.95in /  1014.1hPa Calm     56% 0.00in /  0mm
10:34 79.1 °F /  26.2 °C 62.6 °F /  17 °C 29.95in /  1014.1hPa Calm     57% 0.00in /  0mm
10:39 80.0 °F /  26.7 °C 61.9 °F /  16.6 °C 29.95in /  1014.1hPa Calm     54% 0.00in /  0mm
10:44 80.2 °F /  26.8 °C 59.9 °F /  15.5 °C 29.95in /  1014.1hPa Calm   3.0mph /  4.8km/h 50% 0.00in /  0mm
10:49 80.7 °F /  27.1 °C 61.4 °F /  16.3 °C 29.95in /  1014.1hPa Calm   3.0mph /  4.8km/h 52% 0.00in /  0mm
10:54 81.8 °F /  27.7 °C 63.0 °F /  17.2 °C 29.95in /  1014.1hPa WNW 1.0mph /  1.6km/h 3.0mph /  4.8km/h 53% 0.00in /  0mm
10:59 81.1 °F /  27.3 °C 58.4 °F /  14.7 °C 29.95in /  1014.1hPa NW 1.0mph /  1.6km/h 2.0mph /  3.2km/h 46% 0.00in /  0mm
11:04 81.1 °F /  27.3 °C 58.4 °F /  14.7 °C 29.95in /  1014.1hPa NW 1.0mph /  1.6km/h 3.0mph /  4.8km/h 46% 0.00in /  0mm
11:09 81.7 °F /  27.6 °C 59.5 °F /  15.3 °C 29.94in /  1013.8hPa North 1.0mph /  1.6km/h 3.0mph /  4.8km/h 47% 0.00in /  0mm
11:14 82.3 °F /  27.9 °C 60.6 °F /  15.9 °C 29.94in /  1013.8hPa East 2.0mph /  3.2km/h 2.0mph /  3.2km/h 48% 0.00in /  0mm
11:19 81.9 °F /  27.7 °C 58.5 °F /  14.7 °C 29.94in /  1013.8hPa Calm   4.0mph /  6.4km/h 45% 0.00in /  0mm
11:24 82.5 °F /  28.1 °C 60.8 °F /  16 °C 29.94in /  1013.8hPa NE 2.0mph /  3.2km/h 2.0mph /  3.2km/h 48% 0.00in /  0mm
11:29 81.8 °F /  27.7 °C 57.1 °F /  13.9 °C 29.94in /  1013.8hPa NE 3.0mph /  4.8km/h 7.0mph /  11.3km/h 43% 0.00in /  0mm
11:34 81.5 °F /  27.5 °C 56.8 °F /  13.8 °C 29.94in /  1013.8hPa ENE 2.0mph /  3.2km/h 7.0mph /  11.3km/h 43% 0.00in /  0mm
11:39 81.1 °F /  27.3 °C 56.5 °F /  13.6 °C 29.94in /  1013.8hPa ENE 1.0mph /  1.6km/h 5.0mph /  8km/h 43% 0.00in /  0mm
11:44 81.8 °F /  27.7 °C 59.0 °F /  15 °C 29.94in /  1013.8hPa Calm   3.0mph /  4.8km/h 46% 0.00in /  0mm
11:49 82.0 °F /  27.8 °C 57.3 °F /  14.1 °C 29.94in /  1013.8hPa ENE 1.0mph /  1.6km/h 3.0mph /  4.8km/h 43% 0.00in /  0mm
11:54 82.2 °F /  27.9 °C 58.1 °F /  14.5 °C 29.95in /  1014.1hPa East 2.0mph /  3.2km/h 3.0mph /  4.8km/h 44% 0.00in /  0mm
11:59 82.4 °F /  28 °C 57.0 °F /  13.9 °C 29.95in /  1014.1hPa Calm   3.0mph /  4.8km/h 42% 0.00in /  0mm
12:04 82.3 °F /  27.9 °C 54.2 °F /  12.3 °C 29.95in /  1014.1hPa ENE 1.0mph /  1.6km/h 3.0mph /  4.8km/h 38% 0.00in /  0mm
12:09 82.3 °F /  27.9 °C 57.6 °F /  14.2 °C 29.95in /  1014.1hPa NE 1.0mph /  1.6km/h 3.0mph /  4.8km/h 43% 0.00in /  0mm
12:14 81.9 °F /  27.7 °C 56.6 °F /  13.7 °C 29.95in /  1014.1hPa NE 2.0mph /  3.2km/h 4.0mph /  6.4km/h 42% 0.00in /  0mm
12:19 82.1 °F /  27.8 °C 58.0 °F /  14.4 °C 29.95in /  1014.1hPa Calm   3.0mph /  4.8km/h 44% 0.00in /  0mm
12:24 82.1 °F /  27.8 °C 58.0 °F /  14.4 °C 29.95in /  1014.1hPa ENE 2.0mph /  3.2km/h 5.0mph /  8km/h 44% 0.00in /  0mm
12:29 82.9 °F /  28.3 °C 58.7 °F /  14.8 °C 29.95in /  1014.1hPa ENE 2.0mph /  3.2km/h 7.0mph /  11.3km/h 44% 0.00in /  0mm
12:34 82.7 °F /  28.2 °C 62.7 °F /  17.1 °C 29.95in /  1014.1hPa NNE 3.0mph /  4.8km/h 9.0mph /  14.5km/h 51% 0.00in /  0mm
12:39 82.7 °F /  28.2 °C 63.8 °F /  17.7 °C 29.95in /  1014.1hPa North 3.0mph /  4.8km/h 9.0mph /  14.5km/h 53% 0.00in /  0mm
12:44 82.5 °F /  28.1 °C 63.6 °F /  17.6 °C 29.95in /  1014.1hPa NNE 4.0mph /  6.4km/h 6.0mph /  9.7km/h 53% 0.00in /  0mm
12:49 81.4 °F /  27.4 °C 63.2 °F /  17.3 °C 29.95in /  1014.1hPa NNW 2.0mph /  3.2km/h 7.0mph /  11.3km/h 54% 0.00in /  0mm
12:54 81.0 °F /  27.2 °C 63.3 °F /  17.4 °C 29.95in /  1014.1hPa North 2.0mph /  3.2km/h 8.0mph /  12.9km/h 55% 0.00in /  0mm
12:59 81.0 °F /  27.2 °C 63.3 °F /  17.4 °C 29.95in /  1014.1hPa NNE 1.0mph /  1.6km/h 5.0mph /  8km/h 55% 0.00in /  0mm
13:04 81.4 °F /  27.4 °C 63.7 °F /  17.6 °C 29.94in /  1013.8hPa NNE 2.0mph /  3.2km/h 5.0mph /  8km/h 55% 0.00in /  0mm
13:09 81.5 °F /  27.5 °C 63.3 °F /  17.4 °C 29.94in /  1013.8hPa North 2.0mph /  3.2km/h 5.0mph /  8km/h 54% 0.00in /  0mm
13:14 82.0 °F /  27.8 °C 63.7 °F /  17.6 °C 29.94in /  1013.8hPa North 2.0mph /  3.2km/h 5.0mph /  8km/h 54% 0.00in /  0mm
13:19 82.1 °F /  27.8 °C 64.8 °F /  18.2 °C 29.95in /  1014.1hPa North 2.0mph /  3.2km/h 5.0mph /  8km/h 56% 0.00in /  0mm
13:24 81.6 °F /  27.6 °C 63.9 °F /  17.7 °C 29.95in /  1014.1hPa North 2.0mph /  3.2km/h 10.0mph /  16.1km/h 55% 0.00in /  0mm
13:29 80.7 °F /  27.1 °C 63.5 °F /  17.5 °C 29.94in /  1013.8hPa North 3.0mph /  4.8km/h 10.0mph /  16.1km/h 56% 0.00in /  0mm
13:34 80.9 °F /  27.2 °C 63.2 °F /  17.3 °C 29.94in /  1013.8hPa North 3.0mph /  4.8km/h 10.0mph /  16.1km/h 55% 0.00in /  0mm
13:39 80.6 °F /  27 °C 62.4 °F /  16.9 °C 29.94in /  1013.8hPa North 2.0mph /  3.2km/h 11.0mph /  17.7km/h 54% 0.00in /  0mm
13:44 80.4 °F /  26.9 °C 64.8 °F /  18.2 °C 29.94in /  1013.8hPa NNW 5.0mph /  8km/h 9.0mph /  14.5km/h 59% 0.00in /  0mm
13:49 80.8 °F /  27.1 °C 65.1 °F /  18.4 °C 29.94in /  1013.8hPa Calm   9.0mph /  14.5km/h 59% 0.00in /  0mm
13:54 81.1 °F /  27.3 °C 66.8 °F /  19.3 °C 29.94in /  1013.8hPa NW 2.0mph /  3.2km/h 6.0mph /  9.7km/h 62% 0.00in /  0mm
13:59 81.3 °F /  27.4 °C 64.6 °F /  18.1 °C 29.94in /  1013.8hPa NNW 8.0mph /  12.9km/h 8.0mph /  12.9km/h 57% 0.00in /  0mm
14:04 81.1 °F /  27.3 °C 64.9 °F /  18.3 °C 29.94in /  1013.8hPa NNW 3.0mph /  4.8km/h 8.0mph /  12.9km/h 58% 0.00in /  0mm
14:09 80.2 °F /  26.8 °C 64.1 °F /  17.8 °C 29.94in /  1013.8hPa NNW 3.0mph /  4.8km/h 8.0mph /  12.9km/h 58% 0.00in /  0mm
14:14 79.7 °F /  26.5 °C 63.6 °F /  17.6 °C 29.94in /  1013.8hPa North 3.0mph /  4.8km/h 12.0mph /  19.3km/h 58% 0.00in /  0mm
14:19 80.7 °F /  27.1 °C 63.0 °F /  17.2 °C 29.94in /  1013.8hPa North 4.0mph /  6.4km/h 12.0mph /  19.3km/h 55% 0.00in /  0mm
14:24 81.0 °F /  27.2 °C 63.8 °F /  17.7 °C 29.94in /  1013.8hPa NW 3.0mph /  4.8km/h 8.0mph /  12.9km/h 56% 0.00in /  0mm
14:29 80.7 °F /  27.1 °C 61.4 °F /  16.3 °C 29.94in /  1013.8hPa North 4.0mph /  6.4km/h 11.0mph /  17.7km/h 52% 0.00in /  0mm
14:34 80.5 °F /  26.9 °C 61.3 °F /  16.3 °C 29.94in /  1013.8hPa NNE 3.0mph /  4.8km/h 7.0mph /  11.3km/h 52% 0.00in /  0mm
14:39 79.8 °F /  26.6 °C 60.1 °F /  15.6 °C 29.94in /  1013.8hPa NNE 3.0mph /  4.8km/h 7.0mph /  11.3km/h 51% 0.00in /  0mm
14:44 78.5 °F /  25.8 °C 59.4 °F /  15.2 °C 29.94in /  1013.8hPa NNE 4.0mph /  6.4km/h 13.0mph /  20.9km/h 52% 0.00in /  0mm
14:49 77.4 °F /  25.2 °C 60.5 °F /  15.8 °C 29.94in /  1013.8hPa North 2.0mph /  3.2km/h 7.0mph /  11.3km/h 56% 0.00in /  0mm
14:54 77.5 °F /  25.3 °C 60.1 °F /  15.6 °C 29.94in /  1013.8hPa NNW 3.0mph /  4.8km/h 9.0mph /  14.5km/h 55% 0.00in /  0mm
14:59 77.6 °F /  25.3 °C 61.7 °F /  16.5 °C 29.93in /  1013.4hPa NNE 2.0mph /  3.2km/h 12.0mph /  19.3km/h 58% 0.00in /  0mm
15:04 78.4 °F /  25.8 °C 62.4 °F /  16.9 °C 29.94in /  1013.8hPa NW 6.0mph /  9.7km/h 11.0mph /  17.7km/h 58% 0.00in /  0mm
15:09 78.5 °F /  25.8 °C 61.5 °F /  16.4 °C 29.94in /  1013.8hPa North 5.0mph /  8km/h 11.0mph /  17.7km/h 56% 0.00in /  0mm
15:14 78.3 °F /  25.7 °C 60.3 °F /  15.7 °C 29.93in /  1013.4hPa NNE 4.0mph /  6.4km/h 11.0mph /  17.7km/h 54% 0.00in /  0mm
15:19 77.7 °F /  25.4 °C 61.3 °F /  16.3 °C 29.93in /  1013.4hPa North 2.0mph /  3.2km/h 13.0mph /  20.9km/h 57% 0.00in /  0mm
15:24 77.6 °F /  25.3 °C 61.7 °F /  16.5 °C 29.93in /  1013.4hPa NE 4.0mph /  6.4km/h 9.0mph /  14.5km/h 58% 0.00in /  0mm
15:29 78.1 °F /  25.6 °C 63.1 °F /  17.3 °C 29.93in /  1013.4hPa NNE 2.0mph /  3.2km/h 8.0mph /  12.9km/h 60% 0.00in /  0mm
15:34 78.2 °F /  25.7 °C 63.2 °F /  17.3 °C 29.94in /  1013.8hPa NNE 5.0mph /  8km/h 10.0mph /  16.1km/h 60% 0.00in /  0mm
15:39 77.3 °F /  25.2 °C 63.3 °F /  17.4 °C 29.94in /  1013.8hPa North 5.0mph /  8km/h 13.0mph /  20.9km/h 62% 0.00in /  0mm
15:44 77.0 °F /  25 °C 63.4 °F /  17.4 °C 29.94in /  1013.8hPa North 4.0mph /  6.4km/h 13.0mph /  20.9km/h 63% 0.00in /  0mm
15:49 76.1 °F /  24.5 °C 62.6 °F /  17 °C 29.94in /  1013.8hPa North 4.0mph /  6.4km/h 11.0mph /  17.7km/h 63% 0.00in /  0mm
15:54 74.9 °F /  23.8 °C 62.3 °F /  16.8 °C 29.94in /  1013.8hPa North 5.0mph /  8km/h 14.0mph /  22.5km/h 65% 0.00in /  0mm
15:59 74.4 °F /  23.6 °C 62.3 °F /  16.8 °C 29.94in /  1013.8hPa North 5.0mph /  8km/h 14.0mph /  22.5km/h 66% 0.00in /  0mm
16:04 74.2 °F /  23.4 °C 63.0 °F /  17.2 °C 29.94in /  1013.8hPa NNW 3.0mph /  4.8km/h 9.0mph /  14.5km/h 68% 0.00in /  0mm
16:09 73.9 °F /  23.3 °C 62.7 °F /  17.1 °C 29.94in /  1013.8hPa NW 5.0mph /  8km/h 10.0mph /  16.1km/h 68% 0.00in /  0mm
16:14 74.0 °F /  23.3 °C 63.2 °F /  17.3 °C 29.94in /  1013.8hPa NNE 1.0mph /  1.6km/h 10.0mph /  16.1km/h 69% 0.00in /  0mm
16:19 74.4 °F /  23.6 °C 63.6 °F /  17.6 °C 29.94in /  1013.8hPa North 1.0mph /  1.6km/h 8.0mph /  12.9km/h 69% 0.00in /  0mm
16:24 74.4 °F /  23.6 °C 63.6 °F /  17.6 °C 29.94in /  1013.8hPa NNW 2.0mph /  3.2km/h 7.0mph /  11.3km/h 69% 0.00in /  0mm
16:29 74.9 °F /  23.8 °C 62.8 °F /  17.1 °C 29.94in /  1013.8hPa North 2.0mph /  3.2km/h 4.0mph /  6.4km/h 66% 0.00in /  0mm
16:34 74.2 °F /  23.4 °C 62.1 °F /  16.7 °C 29.94in /  1013.8hPa NNW 5.0mph /  8km/h 9.0mph /  14.5km/h 66% 0.00in /  0mm
16:39 73.9 °F /  23.3 °C 62.7 °F /  17.1 °C 29.94in /  1013.8hPa North 3.0mph /  4.8km/h 9.0mph /  14.5km/h 68% 0.00in /  0mm
16:44 74.2 °F /  23.4 °C 63.0 °F /  17.2 °C 29.94in /  1013.8hPa North 3.0mph /  4.8km/h 8.0mph /  12.9km/h 68% 0.00in /  0mm
16:49 74.3 °F /  23.5 °C 63.1 °F /  17.3 °C 29.94in /  1013.8hPa NNE 3.0mph /  4.8km/h 8.0mph /  12.9km/h 68% 0.00in /  0mm
16:54 74.2 °F /  23.4 °C 63.4 °F /  17.4 °C 29.94in /  1013.8hPa NE 3.0mph /  4.8km/h 9.0mph /  14.5km/h 69% 0.00in /  0mm
16:59 74.1 °F /  23.4 °C 63.3 °F /  17.4 °C 29.94in /  1013.8hPa North 3.0mph /  4.8km/h 5.0mph /  8km/h 69% 0.00in /  0mm
17:04 73.9 °F /  23.3 °C 62.7 °F /  17.1 °C 29.94in /  1013.8hPa NE 1.0mph /  1.6km/h 6.0mph /  9.7km/h 68% 0.00in /  0mm
17:09 73.4 °F /  23 °C 62.6 °F /  17 °C 29.94in /  1013.8hPa NE 1.0mph /  1.6km/h 9.0mph /  14.5km/h 69% 0.00in /  0mm
17:14 73.2 °F /  22.9 °C 62.8 °F /  17.1 °C 29.94in /  1013.8hPa NE 3.0mph /  4.8km/h 9.0mph /  14.5km/h 70% 0.00in /  0mm
17:19 73.0 °F /  22.8 °C 62.2 °F /  16.8 °C 29.94in /  1013.8hPa NE 4.0mph /  6.4km/h 9.0mph /  14.5km/h 69% 0.00in /  0mm
17:24 73.1 °F /  22.8 °C 63.1 °F /  17.3 °C 29.95in /  1014.1hPa NE 1.0mph /  1.6km/h 5.0mph /  8km/h 71% 0.00in /  0mm
17:29 73.2 °F /  22.9 °C 63.2 °F /  17.3 °C 29.94in /  1013.8hPa NNW 1.0mph /  1.6km/h 5.0mph /  8km/h 71% 0.00in /  0mm
17:34 72.7 °F /  22.6 °C 62.8 °F /  17.1 °C 29.95in /  1014.1hPa NE 3.0mph /  4.8km/h 6.0mph /  9.7km/h 71% 0.00in /  0mm
17:39 72.4 °F /  22.4 °C 62.5 °F /  16.9 °C 29.94in /  1013.8hPa ENE 5.0mph /  8km/h 7.0mph /  11.3km/h 71% 0.00in /  0mm
17:44 73.0 °F /  22.8 °C 63.8 °F /  17.7 °C 29.95in /  1014.1hPa NE 3.0mph /  4.8km/h 9.0mph /  14.5km/h 73% 0.00in /  0mm
17:49 73.0 °F /  22.8 °C 64.6 °F /  18.1 °C 29.95in /  1014.1hPa NE 3.0mph /  4.8km/h 9.0mph /  14.5km/h 75% 0.00in /  0mm
17:54 73.4 °F /  23 °C 63.8 °F /  17.7 °C 29.95in /  1014.1hPa NE 4.0mph /  6.4km/h 10.0mph /  16.1km/h 72% 0.00in /  0mm
17:59 73.3 °F /  22.9 °C 63.7 °F /  17.6 °C 29.95in /  1014.1hPa NE 2.0mph /  3.2km/h 10.0mph /  16.1km/h 72% 0.00in /  0mm
18:04 73.3 °F /  22.9 °C 63.7 °F /  17.6 °C 29.95in /  1014.1hPa North 2.0mph /  3.2km/h 5.0mph /  8km/h 72% 0.00in /  0mm
18:09 73.7 °F /  23.2 °C 64.1 °F /  17.8 °C 29.94in /  1013.8hPa NNE 2.0mph /  3.2km/h 5.0mph /  8km/h 72% 0.00in /  0mm
18:14 73.9 °F /  23.3 °C 63.9 °F /  17.7 °C 29.94in /  1013.8hPa NNE 2.0mph /  3.2km/h 5.0mph /  8km/h 71% 0.00in /  0mm
18:19 73.7 °F /  23.2 °C 64.1 °F /  17.8 °C 29.95in /  1014.1hPa NNE 1.0mph /  1.6km/h 5.0mph /  8km/h 72% 0.00in /  0mm
18:24 73.8 °F /  23.2 °C 64.2 °F /  17.9 °C 29.95in /  1014.1hPa NE 3.0mph /  4.8km/h 9.0mph /  14.5km/h 72% 0.00in /  0mm
18:29 74.1 °F /  23.4 °C 64.9 °F /  18.3 °C 29.95in /  1014.1hPa NE 3.0mph /  4.8km/h 9.0mph /  14.5km/h 73% 0.00in /  0mm
18:34 74.0 °F /  23.3 °C 64.4 °F /  18 °C 29.95in /  1014.1hPa NNW 1.0mph /  1.6km/h 6.0mph /  9.7km/h 72% 0.00in /  0mm
18:39 73.6 °F /  23.1 °C 64.4 °F /  18 °C 29.94in /  1013.8hPa North 2.0mph /  3.2km/h 5.0mph /  8km/h 73% 0.00in /  0mm
18:44 73.3 °F /  22.9 °C 64.1 °F /  17.8 °C 29.94in /  1013.8hPa NNE 3.0mph /  4.8km/h 7.0mph /  11.3km/h 73% 0.00in /  0mm
18:49 73.3 °F /  22.9 °C 64.1 °F /  17.8 °C 29.94in /  1013.8hPa NE 2.0mph /  3.2km/h 6.0mph /  9.7km/h 73% 0.00in /  0mm
18:54 72.9 °F /  22.7 °C 64.1 °F /  17.8 °C 29.95in /  1014.1hPa NE 2.0mph /  3.2km/h 4.0mph /  6.4km/h 74% 0.00in /  0mm
18:59 72.8 °F /  22.7 °C 64.0 °F /  17.8 °C 29.94in /  1013.8hPa ENE 4.0mph /  6.4km/h 5.0mph /  8km/h 74% 0.00in /  0mm
19:04 72.8 °F /  22.7 °C 64.0 °F /  17.8 °C 29.95in /  1014.1hPa ENE 3.0mph /  4.8km/h 8.0mph /  12.9km/h 74% 0.00in /  0mm
19:09 73.2 °F /  22.9 °C 64.4 °F /  18 °C 29.94in /  1013.8hPa ENE 4.0mph /  6.4km/h 9.0mph /  14.5km/h 74% 0.00in /  0mm
19:14 73.4 °F /  23 °C 64.6 °F /  18.1 °C 29.95in /  1014.1hPa NE 3.0mph /  4.8km/h 9.0mph /  14.5km/h 74% 0.00in /  0mm
19:19 73.3 °F /  22.9 °C 64.5 °F /  18.1 °C 29.95in /  1014.1hPa NNE 2.0mph /  3.2km/h 7.0mph /  11.3km/h 74% 0.00in /  0mm
19:24 73.1 °F /  22.8 °C 64.7 °F /  18.2 °C 29.95in /  1014.1hPa NNE 2.0mph /  3.2km/h 7.0mph /  11.3km/h 75% 0.00in /  0mm
19:29 72.7 °F /  22.6 °C 64.3 °F /  17.9 °C 29.95in /  1014.1hPa NE 3.0mph /  4.8km/h 9.0mph /  14.5km/h 75% 0.00in /  0mm
19:34 72.7 °F /  22.6 °C 64.3 °F /  17.9 °C 29.95in /  1014.1hPa NE 2.0mph /  3.2km/h 9.0mph /  14.5km/h 75% 0.00in /  0mm
19:39 72.4 °F /  22.4 °C 64.0 °F /  17.8 °C 29.95in /  1014.1hPa Calm   3.0mph /  4.8km/h 75% 0.00in /  0mm
19:44 72.2 °F /  22.3 °C 63.8 °F /  17.7 °C 29.95in /  1014.1hPa NE 1.0mph /  1.6km/h 4.0mph /  6.4km/h 75% 0.00in /  0mm
19:49 72.0 °F /  22.2 °C 63.6 °F /  17.6 °C 29.95in /  1014.1hPa NE 2.0mph /  3.2km/h 7.0mph /  11.3km/h 75% 0.00in /  0mm
19:54 72.0 °F /  22.2 °C 64.0 °F /  17.8 °C 29.95in /  1014.1hPa NE 1.0mph /  1.6km/h 3.0mph /  4.8km/h 76% 0.00in /  0mm
19:59 71.9 °F /  22.2 °C 63.5 °F /  17.5 °C 29.95in /  1014.1hPa NE 4.0mph /  6.4km/h 7.0mph /  11.3km/h 75% 0.00in /  0mm
20:04 71.7 °F /  22.1 °C 63.4 °F /  17.4 °C 29.96in /  1014.4hPa NNE 2.0mph /  3.2km/h 7.0mph /  11.3km/h 75% 0.00in /  0mm
20:09 71.5 °F /  21.9 °C 63.2 °F /  17.3 °C 29.96in /  1014.4hPa ENE 2.0mph /  3.2km/h 8.0mph /  12.9km/h 75% 0.00in /  0mm
20:14 71.3 °F /  21.8 °C 63.3 °F /  17.4 °C 29.96in /  1014.4hPa NE 3.0mph /  4.8km/h 8.0mph /  12.9km/h 76% 0.00in /  0mm
20:19 71.1 °F /  21.7 °C 63.1 °F /  17.3 °C 29.96in /  1014.4hPa NE 3.0mph /  4.8km/h 5.0mph /  8km/h 76% 0.00in /  0mm
20:24 70.9 °F /  21.6 °C 63.3 °F /  17.4 °C 29.97in /  1014.8hPa NNE 2.0mph /  3.2km/h 5.0mph /  8km/h 77% 0.00in /  0mm
20:29 70.8 °F /  21.6 °C 63.2 °F /  17.3 °C 29.96in /  1014.4hPa NNE 2.0mph /  3.2km/h 8.0mph /  12.9km/h 77% 0.00in /  0mm
20:34 70.5 °F /  21.4 °C 62.9 °F /  17.2 °C 29.97in /  1014.8hPa NE 3.0mph /  4.8km/h 8.0mph /  12.9km/h 77% 0.00in /  0mm
20:39 70.3 °F /  21.3 °C 63.1 °F /  17.3 °C 29.97in /  1014.8hPa NNE 2.0mph /  3.2km/h 4.0mph /  6.4km/h 78% 0.00in /  0mm
20:44 70.1 °F /  21.2 °C 62.9 °F /  17.2 °C 29.97in /  1014.8hPa NE 3.0mph /  4.8km/h 7.0mph /  11.3km/h 78% 0.00in /  0mm
20:49 70.0 °F /  21.1 °C 62.8 °F /  17.1 °C 29.97in /  1014.8hPa NE 3.0mph /  4.8km/h 7.0mph /  11.3km/h 78% 0.00in /  0mm
20:54 69.8 °F /  21 °C 63.0 °F /  17.2 °C 29.97in /  1014.8hPa NE 2.0mph /  3.2km/h 6.0mph /  9.7km/h 79% 0.00in /  0mm
20:59 69.5 °F /  20.8 °C 63.1 °F /  17.3 °C 29.97in /  1014.8hPa Calm   4.0mph /  6.4km/h 80% 0.00in /  0mm
21:04 69.5 °F /  20.8 °C 63.1 °F /  17.3 °C 29.97in /  1014.8hPa NE 2.0mph /  3.2km/h 8.0mph /  12.9km/h 80% 0.00in /  0mm
21:09 69.4 °F /  20.8 °C 63.0 °F /  17.2 °C 29.97in /  1014.8hPa NNE 2.0mph /  3.2km/h 5.0mph /  8km/h 80% 0.00in /  0mm
21:14 69.3 °F /  20.7 °C 62.9 °F /  17.2 °C 29.97in /  1014.8hPa NNE 2.0mph /  3.2km/h 5.0mph /  8km/h 80% 0.00in /  0mm
21:19 69.2 °F /  20.7 °C 62.8 °F /  17.1 °C 29.97in /  1014.8hPa NE 2.0mph /  3.2km/h 5.0mph /  8km/h 80% 0.00in /  0mm
21:24 69.0 °F /  20.6 °C 62.9 °F /  17.2 °C 29.98in /  1015.1hPa NE 2.0mph /  3.2km/h 7.0mph /  11.3km/h 81% 0.00in /  0mm
21:29 68.8 °F /  20.4 °C 63.1 °F /  17.3 °C 29.98in /  1015.1hPa NE 1.0mph /  1.6km/h 7.0mph /  11.3km/h 82% 0.00in /  0mm
21:34 68.8 °F /  20.4 °C 63.1 °F /  17.3 °C 29.98in /  1015.1hPa NNE 2.0mph /  3.2km/h 5.0mph /  8km/h 82% 0.00in /  0mm
21:39 68.6 °F /  20.3 °C 62.9 °F /  17.2 °C 29.98in /  1015.1hPa NNE 1.0mph /  1.6km/h 4.0mph /  6.4km/h 82% 0.00in /  0mm
21:44 68.5 °F /  20.3 °C 62.8 °F /  17.1 °C 29.98in /  1015.1hPa NNE 1.0mph /  1.6km/h 5.0mph /  8km/h 82% 0.00in /  0mm
21:49 68.5 °F /  20.3 °C 62.8 °F /  17.1 °C 29.98in /  1015.1hPa NE 1.0mph /  1.6km/h 5.0mph /  8km/h 82% 0.00in /  0mm
21:54 68.4 °F /  20.2 °C 62.7 °F /  17.1 °C 29.98in /  1015.1hPa NE 2.0mph /  3.2km/h 7.0mph /  11.3km/h 82% 0.00in /  0mm
21:59 68.3 °F /  20.2 °C 62.6 °F /  17 °C 29.98in /  1015.1hPa NE 1.0mph /  1.6km/h 7.0mph /  11.3km/h 82% 0.00in /  0mm
22:04 68.2 °F /  20.1 °C 62.8 °F /  17.1 °C 29.98in /  1015.1hPa NE 4.0mph /  6.4km/h 8.0mph /  12.9km/h 83% 0.00in /  0mm
22:09 68.3 °F /  20.2 °C 62.6 °F /  17 °C 29.99in /  1015.5hPa Calm   7.0mph /  11.3km/h 82% 0.00in /  0mm
22:14 68.1 °F /  20.1 °C 62.4 °F /  16.9 °C 29.99in /  1015.5hPa NE 1.0mph /  1.6km/h 2.0mph /  3.2km/h 82% 0.00in /  0mm
22:19 67.9 °F /  19.9 °C 62.5 °F /  16.9 °C 29.99in /  1015.5hPa NE 1.0mph /  1.6km/h 3.0mph /  4.8km/h 83% 0.00in /  0mm
22:24 67.8 °F /  19.9 °C 62.4 °F /  16.9 °C 29.99in /  1015.5hPa ENE 2.0mph /  3.2km/h 5.0mph /  8km/h 83% 0.00in /  0mm
22:29 67.9 °F /  19.9 °C 62.5 °F /  16.9 °C 29.99in /  1015.5hPa NE 2.0mph /  3.2km/h 6.0mph /  9.7km/h 83% 0.00in /  0mm
22:34 68.0 °F /  20 °C 62.6 °F /  17 °C 29.98in /  1015.1hPa NE 3.0mph /  4.8km/h 7.0mph /  11.3km/h 83% 0.00in /  0mm
22:39 68.0 °F /  20 °C 62.6 °F /  17 °C 29.98in /  1015.1hPa Calm   7.0mph /  11.3km/h 83% 0.00in /  0mm
22:44 67.8 °F /  19.9 °C 62.4 °F /  16.9 °C 29.98in /  1015.1hPa NE 4.0mph /  6.4km/h 6.0mph /  9.7km/h 83% 0.00in /  0mm
22:49 67.7 °F /  19.8 °C 62.7 °F /  17.1 °C 29.99in /  1015.5hPa NE 2.0mph /  3.2km/h 8.0mph /  12.9km/h 84% 0.00in /  0mm
22:54 67.6 °F /  19.8 °C 62.6 °F /  17 °C 29.99in /  1015.5hPa NE 3.0mph /  4.8km/h 8.0mph /  12.9km/h 84% 0.00in /  0mm
22:59 67.5 °F /  19.7 °C 62.5 °F /  16.9 °C 29.99in /  1015.5hPa NE 3.0mph /  4.8km/h 7.0mph /  11.3km/h 84% 0.00in /  0mm
23:04 67.4 °F /  19.7 °C 62.4 °F /  16.9 °C 29.99in /  1015.5hPa NE 3.0mph /  4.8km/h 7.0mph /  11.3km/h 84% 0.00in /  0mm
23:09 67.2 °F /  19.6 °C 62.2 °F /  16.8 °C 29.99in /  1015.5hPa Calm   2.0mph /  3.2km/h 84% 0.00in /  0mm
23:14 66.9 °F /  19.4 °C 62.2 °F /  16.8 °C 29.99in /  1015.5hPa NE 2.0mph /  3.2km/h 3.0mph /  4.8km/h 85% 0.00in /  0mm
23:19 66.8 °F /  19.3 °C 62.1 °F /  16.7 °C 29.99in /  1015.5hPa Calm   4.0mph /  6.4km/h 85% 0.00in /  0mm
23:24 66.8 °F /  19.3 °C 62.5 °F /  16.9 °C 29.98in /  1015.1hPa NE 2.0mph /  3.2km/h 5.0mph /  8km/h 86% 0.00in /  0mm
23:29 66.9 °F /  19.4 °C 62.6 °F /  17 °C 29.98in /  1015.1hPa NE 3.0mph /  4.8km/h 5.0mph /  8km/h 86% 0.00in /  0mm
23:34 66.7 °F /  19.3 °C 62.0 °F /  16.7 °C 29.99in /  1015.5hPa ENE 2.0mph /  3.2km/h 4.0mph /  6.4km/h 85% 0.00in /  0mm
23:39 66.6 °F /  19.2 °C 62.3 °F /  16.8 °C 29.99in /  1015.5hPa Calm   4.0mph /  6.4km/h 86% 0.00in /  0mm
23:44 66.5 °F /  19.2 °C 62.2 °F /  16.8 °C 29.99in /  1015.5hPa ENE 1.0mph /  1.6km/h 4.0mph /  6.4km/h 86% 0.00in /  0mm
23:49 66.4 °F /  19.1 °C 62.1 °F /  16.7 °C 29.99in /  1015.5hPa ENE 1.0mph /  1.6km/h 4.0mph /  6.4km/h 86% 0.00in /  0mm
23:54 66.4 °F /  19.1 °C 62.1 °F /  16.7 °C 29.99in /  1015.5hPa ENE 2.0mph /  3.2km/h 4.0mph /  6.4km/h 86% 0.00in /  0mm
23:59 66.3 °F /  19.1 °C 62.0 °F /  16.7 °C 29.99in /  1015.5hPa ENE 1.0mph /  1.6km/h 4.0mph /  6.4km/h 86% 0.00in /  0mm
Buffalo, New York, USA
Compliments of Weather Underground - 2.5 mb